Flight Track Log - Related Links

Times and Time Zones

All times are in EDT time to prevent confusion due to time zone crossing. See the EJA396 flight status page for this flight to view local times or setup timezone preferences in your user account.

Time Position Orientation Groundspeed Altitude Reporting Facility
EDT Latitude Longitude Course Direction KTS MPH feet Rate Location/Type
Sun 03:28:58 PM 35.9567 -115.1358 203° Southwest 203 234 3,500  Level Los Angeles Center
Sun 03:29:28 PM 35.9297 -115.1500 203° Southwest 210 242 5,400 3,088 Climbing Los Angeles Center
Sun 03:30:06 PM 35.8911 -115.1617 194° South 239 275 7,000 1,574 Climbing Los Angeles Center
Sun 03:30:29 PM 35.8625 -115.1589 176° South 270 311 7,000  Level Los Angeles Center
Sun 03:31:08 PM 35.8200 -115.1575 178° South 258 297 7,000 492 Level Los Angeles Center
Sun 03:31:30 PM 35.7942 -115.1628 189° South 246 283 7,500 1,935 Climbing Los Angeles Center
Sun 03:32:10 PM 35.7556 -115.1914 211° Southwest 255 293 9,000 1,706 Climbing Los Angeles Center
Sun 03:33:12 PM 35.7078 -115.2494 225° Southwest 272 313 10,400 1,161 Climbing Los Angeles Center
Sun 03:34:14 PM 35.6964 -115.3592 263° West 274 315 11,400 1,548 Climbing Los Angeles Center
Sun 03:35:16 PM 35.6506 -115.4089 221° Southwest 241 277 13,600 2,592 Climbing Los Angeles Center
Sun 03:36:19 PM 35.6353 -115.4789 255° West 254 292 16,800 1,872 Climbing Los Angeles Center
Sun 03:37:21 PM 35.6892 -115.5683 307° West 311 358 17,500 2,129 Climbing Los Angeles Center
Sun 03:38:23 PM 35.7447 -115.6850 300° West 365 420 21,200 3,242 Climbing Los Angeles Center
Sun 03:39:25 PM 35.7847 -115.7861 296° West 359 413 24,200 2,855 Climbing Los Angeles Center
Sun 03:40:27 PM 35.8375 -115.9106 298° West 362 417 27,100 2,613 Climbing Los Angeles Center
Sun 03:41:29 PM 35.8831 -116.0269 296° West 371 427 29,600 2,419 Climbing Los Angeles Center
Sun 03:42:31 PM 35.9333 -116.1469 297° West 387 445 32,100 2,419 Climbing Los Angeles Center
Sun 03:43:33 PM 35.9825 -116.2667 297° West 388 447 34,600 2,304 Climbing Los Angeles Center
Sun 03:44:36 PM 36.0311 -116.3844 297° West 388 447 36,900 1,632 Climbing Los Angeles Center
Sun 03:45:38 PM 36.0881 -116.5281 296° West 388 447 38,000 532 Climbing Los Angeles Center
Sun 03:46:40 PM 36.1419 -116.6575 297° West 408 470 38,000  Level Los Angeles Center
Sun 03:47:42 PM 36.1972 -116.7956 296° West 436 502 38,000  Level Los Angeles Center
Sun 03:48:44 PM 36.2506 -116.9281 297° West 437 503 38,000  Level Los Angeles Center
Sun 03:49:46 PM 36.3019 -117.0561 297° West 426 490 38,000  Level Los Angeles Center
Sun 03:50:48 PM 36.3617 -117.2058 296° West 413 475 38,000  Level Los Angeles Center
Sun 03:51:51 PM 36.4125 -117.3342 296° West 413 475 38,000  Level Los Angeles Center
Sun 03:52:53 PM 36.4636 -117.4642 296° West 415 478 38,000  Level Los Angeles Center
Sun 03:53:55 PM 36.5150 -117.5950 296° West 419 482 38,000  Level Los Angeles Center
Sun 03:54:57 PM 36.5653 -117.7250 296° West 419 482 38,000  Level Los Angeles Center
Sun 03:55:59 PM 36.6258 -117.8803 296° West 419 482 38,000  Level Los Angeles Center
Sun 03:56:33 PM 36.6506 -117.9450 295° West 420 483 38,000  Level Oakland Center
Sun 03:57:35 PM 36.7008 -118.0747 296° West 419 482 38,000  Level Oakland Center
Sun 03:58:36 PM 36.7500 -118.2022 296° West 412 474 38,000  Level Oakland Center
Sun 03:59:38 PM 36.7994 -118.3328 295° West 412 474 38,000  Level Oakland Center
Sun 04:00:39 PM 36.8600 -118.4914 296° West 414 476 38,000  Level Oakland Center
Sun 04:01:41 PM 36.9025 -118.6061 295° West 418 481 38,000  Level Oakland Center
Sun 04:02:42 PM 36.9531 -118.7378 296° West 419 482 38,000  Level Oakland Center
Sun 04:03:44 PM 37.0119 -118.8975 295° West 422 486 38,000 -293 Level Oakland Center
Sun 04:04:45 PM 37.0586 -119.0283 294° West 419 482 37,400 -780 Descending Oakland Center
Sun 04:05:47 PM 37.0881 -119.1600 286° West 398 458 36,400 -677 Descending Oakland Center
Sun 04:06:49 PM 37.1178 -119.2931 286° West 398 458 36,000 -195 Descending Oakland Center
Sun 04:07:50 PM 37.1469 -119.4261 285° West 398 458 36,000  Level Oakland Center
Sun 04:08:52 PM 37.1772 -119.5617 286° West 404 465 36,000  Level Oakland Center
Sun 04:09:53 PM 37.2064 -119.6981 285° West 405 466 36,000  Level Oakland Center
Sun 04:10:55 PM 37.2369 -119.8397 285° West 405 466 36,000  Level Oakland Center
Sun 04:11:56 PM 37.2661 -119.9747 285° West 404 465 36,000  Level Oakland Center
Sun 04:12:58 PM 37.3006 -120.1375 285° West 404 465 36,000  Level Oakland Center
Sun 04:13:59 PM 37.3294 -120.2703 285° West 400 460 36,000  Level Oakland Center
Sun 04:15:01 PM 37.3572 -120.4064 284° West 400 460 36,000  Level Oakland Center
Sun 04:16:02 PM 37.3861 -120.5394 285° West 400 460 36,000 -488 Level Oakland Center
Sun 04:17:04 PM 37.4139 -120.6756 284° West 399 459 35,000 -1,268 Descending Oakland Center
Sun 04:18:05 PM 37.4419 -120.8083 285° West 398 458 33,400 -1,561 Descending Oakland Center
Sun 04:19:07 PM 37.4689 -120.9378 285° West 387 445 31,800 -1,694 Descending Oakland Center
Sun 04:20:09 PM 37.4964 -121.0706 285° West 387 445 29,900 -2,000 Descending Oakland Center
Sun 04:21:10 PM 37.5264 -121.2217 284° West 395 455 27,700 -2,049 Descending Oakland Center
Sun 04:22:12 PM 37.5542 -121.3558 285° West 396 456 25,700 -2,000 Descending Oakland Center
Sun 04:23:16 PM 37.5833 -121.5000 284° West 400 460 23,500 -1,935 Descending Northern Cal TRACON
Sun 04:24:16 PM 37.6167 -121.6333 288° West 385 443 21,700 -2,150 Descending Northern Cal TRACON
Sun 04:25:16 PM 37.6333 -121.7500 280° West 362 417 19,200 -2,537 Descending Northern Cal TRACON
Sun 04:26:19 PM 37.6600 -121.8883 284° West 357 411 16,500 -2,516 Descending Oakland Center
Sun 04:27:20 PM 37.6831 -122.0050 284° West 348 400 14,000 -2,049 Descending Oakland Center
Sun 04:28:22 PM 37.7056 -122.1189 284° West 341 392 12,300 -1,161 Descending Oakland Center
Sun 04:29:24 PM 37.7517 -122.2150 301° West 334 384 11,600 -829 Descending Oakland Center
Sun 04:30:25 PM 37.8172 -122.2931 317° Northwest 324 373 10,600 -1,073 Descending Oakland Center
Sun 04:31:27 PM 37.8783 -122.3708 315° West 318 366 9,400 -1,561 Descending Oakland Center
Sun 04:32:28 PM 37.9294 -122.4328 316° Northwest 268 308 7,400 -2,390 Descending Oakland Center
Sun 04:33:30 PM 38.0000 -122.4706 337° Northwest 269 310 4,500 -2,565 Descending Oakland Center
Sun 04:34:32 PM 38.0556 -122.4161 38° Northeast 260 299 2,100 -1,220 Descending Oakland Center
Sun 04:35:33 PM 38.1053 -122.3633 40° Northeast 247 284 2,000 -49 Descending Oakland Center
Sun 04:36:35 PM 38.1486 -122.3142 42° Northeast 226 260 2,000  Level Oakland Center
Sun 04:37:36 PM 38.1717 -122.2697 57° Northeast 181 208 2,000 -293 Level Oakland Center
Sun 04:38:38 PM 38.1908 -122.2344 55° Northeast 154 177 1,400 -774 Descending Oakland Center
Sun 04:39:40 PM 38.2133 -122.2544 325° Northwest 123 142 400 -968 Descending Oakland Center

Login

Don't have an account? Register now (free) for customized features, flight alerts, and more!